Rancho Heights (217) Station Data

Red Flag Warning: No
Fire Weather Zone: 250
SDGE Region: North East
Lat/Lon: 33.42/-117.06

Observations

Time Wind Speed/Gust Temp(F) RH Fuel Moist Fuel Temp(F) Dewpt(F) Tmax(F) Tmin(F) Accum Precip 10-min Precip SL Press(mb)
2/27 11:40pm 201 10 G 15 47° 100% - - 47° 51.2° 39.9° - - -
2/27 11:20pm 181 7 G 13 47° 100% - - 47° 51.2° 39.9° - - -
2/27 11:10pm 179 7 G 11 47° 100% - - 47° 51.2° 39.9° - - -
2/27 11:00pm 195 8 G 14 47° 100% - - 47° 51.2° 39.9° - - -
2/27 10:50pm 200 7 G 14 47° 100% - - 47° 51.2° 39.9° - - -
2/27 10:40pm 186 7 G 12 47° 100% - - 47° 51.2° 39.9° - - -
2/27 10:30pm 181 6 G 10 47° 100% - - 47° 51.2° 39.9° - - -
2/27 10:20pm 174 5 G 9 47° 100% - - 47° 51.2° 39.9° - - -
2/27 10:10pm 175 4 G 9 47° 100% - - 47° 51.2° 39.9° - - -
2/27 10:00pm 166 4 G 9 47° 100% - - 47° 51.2° 39.9° - - -
2/27 9:50pm 200 5 G 8 47° 100% - - 47° 51.2° 39.9° - - -
2/27 9:40pm 198 4 G 7 47° 100% - - 47° 51.2° 39.9° - - -
2/27 9:30pm 214 7 G 12 48° 100% - - 48° 51.2° 39.9° - - -
2/27 9:20pm 221 6 G 11 48° 100% - - 48° 51.2° 39.9° - - -
2/27 9:10pm 192 5 G 7 48° 100% - - 48° 51.2° 39.9° - - -
2/27 9:00pm 188 6 G 8 48° 100% - - 48° 51.2° 39.9° - - -
2/27 8:50pm 177 5 G 9 48° 100% - - 48° 51.2° 39.9° - - -
2/27 8:40pm 179 6 G 9 48° 100% - - 48° 51.2° 39.9° - - -
2/27 8:30pm 167 5 G 7 48° 100% - - 48° 51.2° 39.9° - - -
2/27 8:20pm 151 4 G 6 48° 100% - - 48° 51.2° 39.9° - - -
2/27 8:10pm 160 4 G 9 48° 100% - - 48° 51.2° 39.9° - - -
2/27 8:00pm 180 6 G 9 48° 100% - - 48° 51.2° 39.9° - - -
2/27 7:50pm 206 7 G 12 48° 100% - - 48° 51.2° 39.9° - - -
2/27 7:40pm 210 9 G 15 48° 100% - - 48° 51.2° 39.9° - - -
2/27 7:30pm 208 11 G 18 48° 100% - - 48° 51.2° 39.9° - - -
2/27 7:20pm 202 11 G 18 49° 100% - - 49° 51.2° 39.9° - - -
2/27 7:10pm 204 11 G 18 49° 100% - - 49° 51.2° 39.9° - - -
2/27 7:00pm 207 11 G 17 49° 100% - - 49° 51.2° 39.9° - - -
2/27 6:50pm 208 12 G 18 49° 100% - - 49° 51.2° 39.9° - - -
2/27 6:40pm 208 12 G 19 49° 100% - - 49° 51.2° 39.9° - - -
2/27 6:30pm 194 10 G 17 49° 100% - - 49° 51.2° 39.9° - - -
2/27 6:20pm 200 10 G 16 49° 100% - - 49° 51.2° 39.9° - - -
2/27 6:10pm 202 11 G 18 49° 100% - - 49° 51.2° 39.9° - - -
2/27 6:00pm 194 13 G 24 49° 100% - - 49° 51.2° 39.9° - - -
2/27 5:50pm 195 14 G 27 49° 100% - - 49° 51.2° 39.9° - - -
2/27 5:40pm 198 14 G 25 49° 100% - - 49° 51.2° 39.9° - - -
2/27 5:30pm 202 17 G 28 49° 100% - - 49° 51.2° 39.9° - - -
2/27 5:20pm 197 19 G 33 49° 100% - - 49° 51.2° 39.9° - - -
2/27 5:10pm 191 15 G 26 49° 100% - - 49° 51.2° 39.9° - - -
2/27 5:00pm 190 15 G 23 49° 100% - - 49° 51.2° 39.9° - - -
2/27 4:50pm 193 16 G 26 49° 100% - - 49° 51.2° 39.9° - - -
2/27 4:40pm 189 13 G 29 49° 100% - - 49° 51.2° 39.9° - - -
2/27 4:30pm 196 15 G 26 49° 100% - - 49° 51.2° 39.9° - - -
2/27 4:20pm 196 16 G 27 49° 100% - - 49° 51.2° 39.9° - - -
2/27 4:10pm 186 15 G 23 50° 100% - - 50° 51.2° 39.9° - - -
2/27 4:00pm 185 17 G 33 49° 100% - - 49° 51.2° 39.9° - - -
2/27 3:50pm 191 16 G 27 49° 100% - - 49° 51.2° 39.9° - - -
2/27 3:40pm 193 16 G 23 50° 100% - - 50° 51.2° 39.9° - - -
2/27 3:30pm 184 16 G 25 50° 100% - - 50° 51.2° 39.9° - - -
2/27 3:20pm 187 18 G 28 50° 100% - - 50° 51.2° 39.9° - - -
2/27 3:10pm 195 19 G 31 50° 100% - - 50° 51.2° 39.9° - - -
2/27 3:00pm 193 16 G 24 50° 100% - - 50° 51.2° 39.9° - - -
2/27 2:50pm 197 19 G 30 50° 100% - - 50° 51.2° 39.9° - - -
2/27 2:40pm 191 19 G 34 50° 100% - - 50° 51.2° 39.9° - - -
2/27 2:30pm 187 19 G 32 50° 100% - - 50° 51.2° 39.9° - - -
2/27 2:20pm 192 18 G 28 50° 100% - - 50° 51.2° 39.9° - - -
2/27 2:10pm 185 17 G 27 51° 100% - - 51° 51.2° 39.9° - - -
2/27 2:00pm 187 18 G 25 51° 100% - - 51° 51.2° 39.9° - - -
2/27 1:50pm 189 16 G 24 51° 100% - - 51° 51.1° 39.9° - - -
2/27 1:40pm 189 14 G 22 50° 100% - - 50° 50.9° 39.9° - - -
2/27 1:30pm 177 18 G 28 50° 100% - - 50° 50.7° 39.9° - - -
2/27 1:20pm 165 13 G 24 50° 100% - - 50° 50.7° 39.9° - - -
2/27 1:10pm 156 11 G 18 50° 100% - - 50° 50.7° 39.9° - - -
2/27 1:00pm 151 11 G 18 50° 100% - - 49° 50.7° 39.9° - - -
2/27 12:50pm 152 10 G 19 49° 100% - - 49° 50.7° 39.9° - - -
2/27 12:40pm 168 10 G 17 49° 100% - - 49° 50.7° 39.9° - - -
2/27 12:30pm 167 10 G 18 49° 100% - - 49° 50.7° 39.9° - - -
2/27 12:20pm 159 10 G 16 50° 100% - - 50° 50.7° 39.9° - - -
2/27 12:10pm 167 10 G 16 50° 100% - - 50° 50.7° 39.9° - - -
2/27 12:00pm 163 12 G 20 50° 100% - - 50° 50.7° 39.9° - - -
2/27 11:50am 161 11 G 18 50° 100% - - 50° 50.7° 39.9° - - -
2/27 11:40am 165 13 G 21 50° 100% - - 50° 50.7° 39.9° - - -
2/27 11:30am 180 13 G 22 50° 100% - - 50° 50.7° 39.9° - - -
2/27 11:20am 193 14 G 23 50° 100% - - 50° 50.7° 39.9° - - -
2/27 11:10am 191 15 G 23 50° 100% - - 50° 50.7° 39.9° - - -
2/27 11:00am 183 14 G 23 50° 100% - - 50° 50.7° 39.9° - - -
2/27 10:50am 177 11 G 17 50° 100% - - 50° 50.7° 39.9° - - -
2/27 10:40am 182 9 G 17 50° 99% - - 50° 50.7° 39.9° - - -
2/27 10:30am 185 9 G 15 50° 99% - - 50° 50.7° 39.9° - - -
2/27 10:20am 184 9 G 16 50° 99% - - 50° 50.7° 39.9° - - -
2/27 10:10am 190 9 G 15 50° 99% - - 50° 50.7° 39.9° - - -
2/27 10:00am 191 10 G 15 50° 99% - - 50° 50.7° 39.9° - - -
2/27 9:50am 196 9 G 13 50° 99% - - 50° 50.6° 39.9° - - -
2/27 9:40am 187 10 G 16 50° 99% - - 50° 50.6° 39.9° - - -
2/27 9:30am 181 10 G 16 50° 99% - - 50° 50.6° 39.9° - - -
2/27 9:20am 177 8 G 14 50° 99% - - 50° 50.6° 39.9° - - -
2/27 9:10am 176 10 G 14 50° 99% - - 50° 50.6° 39.9° - - -
2/27 9:00am 175 9 G 16 49° 99% - - 49° 50.6° 39.9° - - -
2/27 8:50am 196 6 G 12 48° 99% - - 48° 50.6° 39.9° - - -
2/27 8:40am 156 8 G 14 50° 99% - - 50° 50.6° 39.9° - - -
2/27 8:30am 145 8 G 16 50° 99% - - 50° 50.4° 39.9° - - -
2/27 8:20am 144 7 G 13 49° 99% - - 49° 49.6° 39.9° - - -
2/27 8:10am 152 7 G 12 48° 99% - - 48° 49.4° 39.9° - - -
2/27 8:00am 187 8 G 14 49° 99% - - 48° 49.4° 39.9° - - -
2/27 7:50am 170 6 G 10 49° 99% - - 49° 49.4° 39.9° - - -
2/27 7:40am 148 5 G 10 49° 99% - - 48° 49.3° 39.9° - - -
2/27 7:30am 149 7 G 11 48° 99% - - 48° 48.8° 39.9° - - -
2/27 7:20am 153 6 G 11 48° 99% - - 47° 48.2° 39.9° - - -
2/27 7:10am 127 4 G 10 46° 99% - - 45° 47.4° 39.9° - - -
2/27 7:00am 26 4 G 6 42° 98% - - 41° 46° 39.9° - - -
2/27 6:50am 8 5 G 10 42° 98% - - 41° 46° 39.9° - - -
2/27 6:40am 354 5 G 10 42° 98% - - 41° 46° 39.9° - - -
2/27 6:30am 9 4 G 8 42° 98% - - 42° 46° 39.9° - - -
2/27 6:20am 12 4 G 11 42° 98% - - 41° 46° 39.9° - - -
2/27 6:10am 10 4 G 12 41° 98% - - 41° 46° 39.9° - - -
2/27 6:00am 20 5 G 7 41° 98% - - 41° 46° 39.9° - - -
2/27 5:50am 22 5 G 10 42° 98% - - 41° 46° 39.9° - - -
2/27 5:40am 3 2 G 4 44° 98% - - 43° 46° 39.9° - - -
2/27 5:30am 24 2 G 4 44° 98% - - 44° 46° 39.9° - - -
2/27 5:20am 12 3 G 6 43° 98% - - 43° 46° 39.9° - - -
2/27 5:10am 2 4 G 8 42° 98% - - 42° 46° 39.9° - - -
2/27 5:00am 0 4 G 9 42° 98% - - 42° 46° 39.9° - - -
2/27 4:50am 352 6 G 10 43° 98% - - 42° 46° 39.9° - - -
2/27 4:40am 357 5 G 9 42° 98% - - 41° 46° 39.9° - - -
2/27 4:30am 355 7 G 10 41° 98% - - 40° 46° 39.9° - - -
2/27 4:20am 329 5 G 11 43° 97% - - 42° 46° 39.9° - - -
2/27 4:10am 134 1 G 3 44° 98% - - 44° 45.8° 39.9° - - -
2/27 4:00am 31 2 G 4 42° 97% - - 41° 45.5° 39.9° - - -
2/27 3:50am 16 2 G 4 43° 97% - - 42° 45.5° 39.9° - - -
2/27 3:40am 341 1 G 3 44° 98% - - 43° 45.5° 39.9° - - -
2/27 3:30am 16 4 G 7 41° 97% - - 40° 45.5° 39.9° - - -
2/27 3:20am 356 4 G 10 42° 97% - - 41° 45.5° 39.9° - - -
2/27 3:10am 17 3 G 7 42° 97% - - 41° 45.5° 39.9° - - -
2/27 3:00am 21 3 G 6 42° 96% - - 41° 45.5° 39.9° - - -
2/27 2:50am 39 3 G 6 42° 96% - - 41° 45.5° 39.9° - - -
2/27 2:40am 54 1 G 4 43° 96% - - 42° 45.5° 39.9° - - -
2/27 2:30am 20 2 G 5 41° 95% - - 40° 45.5° 39.9° - - -
2/27 2:20am 22 3 G 6 41° 94% - - 39° 45.5° 39.9° - - -
2/27 2:10am 32 3 G 6 41° 91% - - 39° 45.5° 40.1° - - -
2/27 2:00am 80 2 G 3 42° 90% - - 40° 45.5° 41.3° - - -
2/27 1:50am 152 4 G 5 43° 85% - - 39° 45.5° 41.5° - - -
2/27 1:40am 163 4 G 7 44° 78% - - 37° 45.5° 41.5° - - -
2/27 1:30am 111 4 G 7 44° 75% - - 36° 45.5° 41.5° - - -
2/27 1:20am 108 4 G 8 45° 67% - - 34° 45.5° 41.5° - - -
2/27 1:10am 120 4 G 7 45° 67% - - 34° 45.2° 41.5° - - -
2/27 1:00am 124 5 G 8 44° 70% - - 35° 44.5° 41.5° - - -
2/27 12:50am 147 6 G 9 43° 69% - - 34° 44.1° 41.5° - - -
2/27 12:40am 130 6 G 10 43° 68% - - 33° 43.6° 41.5° - - -
2/27 12:30am 142 6 G 10 43° 67% - - 33° 43.6° 41.5° - - -
2/27 12:20am 134 6 G 11 43° 68% - - 33° 43.3° 41.5° - - -
2/27 12:10am 125 5 G 10 42° 69% - - 33° 42.7° 41.5° - - -
2/27 12:00am 136 5 G 10 42° 77% - - 35° 48.7° 40.1° - - -
2/26 11:50pm 153 5 G 9 42° 82% - - 37° 48.7° 40.1° - - -
2/26 11:40pm 156 5 G 9 42° 84% - - 37° 48.7° 40.1° - - -
2/26 11:30pm 161 6 G 9 41° 86% - - 38° 48.7° 40.1° - - -
2/26 11:20pm 151 5 G 8 41° 90% - - 39° 48.7° 40.1° - - -
2/26 11:10pm 164 6 G 9 42° 91% - - 39° 48.7° 40.1° - - -
2/26 11:00pm 172 6 G 9 42° 91% - - 39° 48.7° 40.1° - - -
2/26 10:50pm 157 5 G 8 42° 90% - - 39° 48.7° 40.1° - - -
2/26 10:40pm 160 5 G 8 42° 89% - - 39° 48.7° 40.1° - - -
2/26 10:30pm 170 6 G 10 42° 90% - - 40° 48.7° 40.1° - - -
2/26 10:20pm 172 7 G 10 43° 89% - - 40° 48.7° 40.1° - - -
2/26 10:10pm 170 8 G 12 43° 87% - - 39° 48.7° 40.1° - - -
2/26 10:00pm 159 8 G 11 43° 89% - - 40° 48.7° 40.1° - - -
2/26 9:50pm 153 7 G 14 43° 89% - - 40° 48.7° 40.1° - - -
2/26 9:40pm 153 7 G 11 43° 91% - - 40° 48.7° 40.1° - - -
2/26 9:30pm 155 8 G 12 43° 92% - - 40° 48.7° 40.1° - - -
2/26 9:20pm 154 7 G 11 43° 94% - - 41° 48.7° 40.1° - - -
2/26 9:10pm 167 7 G 10 42° 96% - - 41° 48.7° 40.1° - - -
2/26 9:00pm 150 8 G 14 42° 97% - - 42° 48.7° 40.1° - - -
2/26 8:50pm 166 9 G 14 42° 97% - - 42° 48.7° 40.1° - - -
2/26 8:40pm 156 9 G 16 42° 98% - - 42° 48.7° 40.1° - - -
2/26 8:30pm 155 7 G 12 42° 98% - - 42° 48.7° 40.1° - - -
2/26 8:20pm 173 7 G 13 42° 99% - - 42° 48.7° 40.1° - - -
2/26 8:10pm 160 7 G 12 42° 99% - - 42° 48.7° 40.1° - - -
2/26 8:00pm 174 9 G 13 42° 99% - - 42° 48.7° 40.1° - - -
2/26 7:50pm 177 9 G 15 42° 99% - - 42° 48.7° 40.1° - - -
2/26 7:40pm 180 9 G 12 42° 99% - - 42° 48.7° 40.1° - - -
2/26 7:30pm 181 8 G 12 43° 99% - - 42° 48.7° 40.1° - - -
2/26 7:20pm 183 8 G 11 43° 99% - - 43° 48.7° 40.1° - - -
2/26 7:10pm 188 9 G 13 43° 99% - - 43° 48.7° 40.1° - - -
2/26 7:00pm 201 9 G 13 43° 99% - - 43° 48.7° 40.1° - - -
2/26 6:50pm 200 11 G 16 43° 99% - - 43° 48.7° 40.1° - - -
2/26 6:40pm 203 9 G 14 44° 99% - - 43° 48.7° 40.1° - - -
2/26 6:30pm 203 10 G 15 44° 98% - - 43° 48.7° 40.1° - - -
2/26 6:20pm 196 11 G 17 44° 98% - - 43° 48.7° 40.1° - - -
2/26 6:10pm 206 10 G 16 44° 98% - - 44° 48.7° 40.1° - - -
2/26 6:00pm 202 11 G 20 44° 98% - - 44° 48.7° 40.1° - - -
2/26 5:50pm 205 11 G 16 44° 98% - - 44° 48.7° 40.1° - - -
2/26 5:40pm 207 10 G 17 44° 98% - - 44° 48.7° 40.1° - - -
2/26 5:30pm 208 11 G 18 44° 98% - - 44° 48.7° 40.1° - - -
2/26 5:20pm 202 11 G 19 45° 98% - - 44° 48.7° 40.1° - - -
2/26 5:10pm 203 11 G 17 44° 98% - - 44° 48.7° 40.1° - - -
2/26 5:00pm 207 12 G 19 44° 98% - - 44° 48.7° 40.1° - - -